sensor_id;sensor_type;location;lat;lon;timestamp;temperature;humidity
1996;DHT22;38556;47.068;15.408;2023-07-20T00:00:11;24.30;91.90
1996;DHT22;38556;47.068;15.408;2023-07-20T00:02:40;24.30;91.90
1996;DHT22;38556;47.068;15.408;2023-07-20T00:05:07;24.40;91.90
1996;DHT22;38556;47.068;15.408;2023-07-20T00:07:34;24.20;91.30
1996;DHT22;38556;47.068;15.408;2023-07-20T00:10:01;24.20;91.70
1996;DHT22;38556;47.068;15.408;2023-07-20T00:12:29;24.00;91.00
1996;DHT22;38556;47.068;15.408;2023-07-20T00:14:58;24.00;91.70
1996;DHT22;38556;47.068;15.408;2023-07-20T00:17:25;24.00;91.10
1996;DHT22;38556;47.068;15.408;2023-07-20T00:19:52;24.10;91.00
1996;DHT22;38556;47.068;15.408;2023-07-20T00:22:19;24.00;90.80
1996;DHT22;38556;47.068;15.408;2023-07-20T00:24:46;24.10;90.20
1996;DHT22;38556;47.068;15.408;2023-07-20T00:27:15;24.10;90.40
1996;DHT22;38556;47.068;15.408;2023-07-20T00:29:42;24.00;89.60
1996;DHT22;38556;47.068;15.408;2023-07-20T00:32:11;24.00;89.80
1996;DHT22;38556;47.068;15.408;2023-07-20T00:34:38;24.10;90.20
1996;DHT22;38556;47.068;15.408;2023-07-20T00:37:05;24.10;90.90
1996;DHT22;38556;47.068;15.408;2023-07-20T00:39:32;24.10;91.00
1996;DHT22;38556;47.068;15.408;2023-07-20T00:42:00;24.10;91.00
1996;DHT22;38556;47.068;15.408;2023-07-20T00:44:27;24.00;91.00
1996;DHT22;38556;47.068;15.408;2023-07-20T00:46:55;24.00;91.10
1996;DHT22;38556;47.068;15.408;2023-07-20T00:49:23;23.90;90.80
1996;DHT22;38556;47.068;15.408;2023-07-20T00:51:50;24.00;91.20
1996;DHT22;38556;47.068;15.408;2023-07-20T00:54:18;24.00;90.80
1996;DHT22;38556;47.068;15.408;2023-07-20T00:56:45;24.00;90.80
1996;DHT22;38556;47.068;15.408;2023-07-20T00:59:14;24.00;90.80
1996;DHT22;38556;47.068;15.408;2023-07-20T01:01:41;24.00;91.20
1996;DHT22;38556;47.068;15.408;2023-07-20T01:04:08;24.00;91.20
1996;DHT22;38556;47.068;15.408;2023-07-20T01:06:47;23.90;90.40
1996;DHT22;38556;47.068;15.408;2023-07-20T01:09:19;23.90;88.00
1996;DHT22;38556;47.068;15.408;2023-07-20T01:11:57;23.90;88.80
1996;DHT22;38556;47.068;15.408;2023-07-20T01:14:27;23.90;89.30
1996;DHT22;38556;47.068;15.408;2023-07-20T01:16:54;23.90;90.00
1996;DHT22;38556;47.068;15.408;2023-07-20T01:19:22;24.00;89.70
1996;DHT22;38556;47.068;15.408;2023-07-20T01:21:55;24.00;90.40
1996;DHT22;38556;47.068;15.408;2023-07-20T01:24:44;23.90;90.30
1996;DHT22;38556;47.068;15.408;2023-07-20T01:27:30;23.70;87.00
1996;DHT22;38556;47.068;15.408;2023-07-20T01:30:21;23.70;87.60
1996;DHT22;38556;47.068;15.408;2023-07-20T01:32:55;23.60;86.70
1996;DHT22;38556;47.068;15.408;2023-07-20T01:35:23;23.50;87.40
1996;DHT22;38556;47.068;15.408;2023-07-20T01:37:54;23.50;87.20
1996;DHT22;38556;47.068;15.408;2023-07-20T01:40:22;23.60;88.10
1996;DHT22;38556;47.068;15.408;2023-07-20T01:42:51;23.60;85.90
1996;DHT22;38556;47.068;15.408;2023-07-20T01:45:19;23.40;85.80
1996;DHT22;38556;47.068;15.408;2023-07-20T01:47:47;23.30;87.60
1996;DHT22;38556;47.068;15.408;2023-07-20T01:50:15;23.40;88.10
1996;DHT22;38556;47.068;15.408;2023-07-20T01:52:43;23.50;89.10
1996;DHT22;38556;47.068;15.408;2023-07-20T01:55:10;23.40;88.80
1996;DHT22;38556;47.068;15.408;2023-07-20T01:57:37;23.50;89.60
1996;DHT22;38556;47.068;15.408;2023-07-20T02:00:06;23.60;90.20
1996;DHT22;38556;47.068;15.408;2023-07-20T02:02:34;23.70;90.30
1996;DHT22;38556;47.068;15.408;2023-07-20T02:05:02;23.70;90.00
1996;DHT22;38556;47.068;15.408;2023-07-20T02:07:30;23.60;88.90
1996;DHT22;38556;47.068;15.408;2023-07-20T02:09:58;23.60;89.30
1996;DHT22;38556;47.068;15.408;2023-07-20T02:12:25;23.70;90.00
1996;DHT22;38556;47.068;15.408;2023-07-20T02:14:52;23.70;89.40
1996;DHT22;38556;47.068;15.408;2023-07-20T02:17:19;23.80;90.00
1996;DHT22;38556;47.068;15.408;2023-07-20T02:19:50;23.80;90.30
1996;DHT22;38556;47.068;15.408;2023-07-20T02:22:17;23.80;90.40
1996;DHT22;38556;47.068;15.408;2023-07-20T02:24:46;23.40;86.50
1996;DHT22;38556;47.068;15.408;2023-07-20T02:27:13;23.40;86.80
1996;DHT22;38556;47.068;15.408;2023-07-20T02:29:41;23.20;84.90
1996;DHT22;38556;47.068;15.408;2023-07-20T02:32:08;23.20;83.60
1996;DHT22;38556;47.068;15.408;2023-07-20T02:34:37;23.30;85.20
1996;DHT22;38556;47.068;15.408;2023-07-20T02:37:04;23.20;86.20
1996;DHT22;38556;47.068;15.408;2023-07-20T02:39:31;23.20;87.30
1996;DHT22;38556;47.068;15.408;2023-07-20T02:42:01;23.20;84.40
1996;DHT22;38556;47.068;15.408;2023-07-20T02:44:28;23.10;81.80
1996;DHT22;38556;47.068;15.408;2023-07-20T02:46:56;23.20;81.30
1996;DHT22;38556;47.068;15.408;2023-07-20T02:49:23;23.20;81.30
1996;DHT22;38556;47.068;15.408;2023-07-20T02:51:51;23.10;81.50
1996;DHT22;38556;47.068;15.408;2023-07-20T02:54:18;23.20;81.00
1996;DHT22;38556;47.068;15.408;2023-07-20T02:56:45;23.20;81.00
1996;DHT22;38556;47.068;15.408;2023-07-20T02:59:13;23.10;81.30
1996;DHT22;38556;47.068;15.408;2023-07-20T03:01:41;23.10;81.60
1996;DHT22;38556;47.068;15.408;2023-07-20T03:04:08;23.10;82.00
1996;DHT22;38556;47.068;15.408;2023-07-20T03:06:37;23.20;81.50
1996;DHT22;38556;47.068;15.408;2023-07-20T03:09:04;23.20;80.90
1996;DHT22;38556;47.068;15.408;2023-07-20T03:11:33;23.20;80.00
1996;DHT22;38556;47.068;15.408;2023-07-20T03:14:00;23.30;80.90
1996;DHT22;38556;47.068;15.408;2023-07-20T03:16:29;23.30;81.00
1996;DHT22;38556;47.068;15.408;2023-07-20T03:18:58;23.30;81.00
1996;DHT22;38556;47.068;15.408;2023-07-20T03:21:26;23.30;81.70
1996;DHT22;38556;47.068;15.408;2023-07-20T03:23:53;23.30;81.70
1996;DHT22;38556;47.068;15.408;2023-07-20T03:26:20;23.20;81.70
1996;DHT22;38556;47.068;15.408;2023-07-20T03:28:48;23.30;81.90
1996;DHT22;38556;47.068;15.408;2023-07-20T03:31:15;23.30;82.40
1996;DHT22;38556;47.068;15.408;2023-07-20T03:33:43;23.20;81.20
1996;DHT22;38556;47.068;15.408;2023-07-20T03:36:11;23.20;81.80
1996;DHT22;38556;47.068;15.408;2023-07-20T03:38:39;23.10;81.40
1996;DHT22;38556;47.068;15.408;2023-07-20T03:41:06;23.00;82.40
1996;DHT22;38556;47.068;15.408;2023-07-20T03:43:34;22.90;82.30
1996;DHT22;38556;47.068;15.408;2023-07-20T03:46:02;23.00;82.50
1996;DHT22;38556;47.068;15.408;2023-07-20T03:48:32;23.00;83.20
1996;DHT22;38556;47.068;15.408;2023-07-20T03:51:02;23.00;82.70
1996;DHT22;38556;47.068;15.408;2023-07-20T03:53:29;23.00;83.10
1996;DHT22;38556;47.068;15.408;2023-07-20T03:55:56;23.10;81.20
1996;DHT22;38556;47.068;15.408;2023-07-20T03:58:23;23.10;82.40
1996;DHT22;38556;47.068;15.408;2023-07-20T04:00:52;23.00;82.30
1996;DHT22;38556;47.068;15.408;2023-07-20T04:03:19;22.90;83.40
1996;DHT22;38556;47.068;15.408;2023-07-20T04:05:47;22.90;82.80
1996;DHT22;38556;47.068;15.408;2023-07-20T04:10:43;22.80;83.70
1996;DHT22;38556;47.068;15.408;2023-07-20T04:13:11;22.60;84.50
1996;DHT22;38556;47.068;15.408;2023-07-20T04:15:39;22.60;85.20
1996;DHT22;38556;47.068;15.408;2023-07-20T04:18:06;22.60;85.40
1996;DHT22;38556;47.068;15.408;2023-07-20T04:20:33;22.50;87.00
1996;DHT22;38556;47.068;15.408;2023-07-20T04:23:00;22.60;87.20
1996;DHT22;38556;47.068;15.408;2023-07-20T04:25:29;22.70;87.20
1996;DHT22;38556;47.068;15.408;2023-07-20T04:28:05;23.00;86.80
1996;DHT22;38556;47.068;15.408;2023-07-20T04:30:35;22.60;86.80
1996;DHT22;38556;47.068;15.408;2023-07-20T04:33:02;22.80;88.00
1996;DHT22;38556;47.068;15.408;2023-07-20T04:35:52;22.80;86.80
1996;DHT22;38556;47.068;15.408;2023-07-20T04:38:19;23.10;85.40
1996;DHT22;38556;47.068;15.408;2023-07-20T04:40:49;23.20;85.90
1996;DHT22;38556;47.068;15.408;2023-07-20T04:43:17;23.20;85.00
1996;DHT22;38556;47.068;15.408;2023-07-20T04:45:45;23.10;83.50
1996;DHT22;38556;47.068;15.408;2023-07-20T04:48:14;22.90;83.70
1996;DHT22;38556;47.068;15.408;2023-07-20T04:50:44;23.00;84.30
1996;DHT22;38556;47.068;15.408;2023-07-20T04:53:11;23.00;84.70
1996;DHT22;38556;47.068;15.408;2023-07-20T04:55:40;23.10;85.90
1996;DHT22;38556;47.068;15.408;2023-07-20T04:58:08;22.90;83.90
1996;DHT22;38556;47.068;15.408;2023-07-20T05:00:38;22.80;84.40
1996;DHT22;38556;47.068;15.408;2023-07-20T05:03:05;22.90;84.00
1996;DHT22;38556;47.068;15.408;2023-07-20T05:05:33;22.80;83.90
1996;DHT22;38556;47.068;15.408;2023-07-20T05:08:00;22.90;83.90
1996;DHT22;38556;47.068;15.408;2023-07-20T05:10:27;22.90;85.40
1996;DHT22;38556;47.068;15.408;2023-07-20T05:12:54;22.80;85.20
1996;DHT22;38556;47.068;15.408;2023-07-20T05:15:23;22.70;85.10
1996;DHT22;38556;47.068;15.408;2023-07-20T05:17:50;22.80;85.90
1996;DHT22;38556;47.068;15.408;2023-07-20T05:20:18;22.80;86.60
1996;DHT22;38556;47.068;15.408;2023-07-20T05:22:46;22.90;87.50
1996;DHT22;38556;47.068;15.408;2023-07-20T05:25:13;23.00;87.70
1996;DHT22;38556;47.068;15.408;2023-07-20T05:27:45;22.90;87.60
1996;DHT22;38556;47.068;15.408;2023-07-20T05:30:13;22.90;88.30
1996;DHT22;38556;47.068;15.408;2023-07-20T05:32:41;23.00;88.50
1996;DHT22;38556;47.068;15.408;2023-07-20T05:35:09;22.70;87.00
1996;DHT22;38556;47.068;15.408;2023-07-20T05:37:37;22.70;88.80
1996;DHT22;38556;47.068;15.408;2023-07-20T05:40:06;22.70;89.20
1996;DHT22;38556;47.068;15.408;2023-07-20T05:42:33;22.80;88.10
1996;DHT22;38556;47.068;15.408;2023-07-20T05:45:01;23.00;87.50
1996;DHT22;38556;47.068;15.408;2023-07-20T05:47:28;23.00;87.30
1996;DHT22;38556;47.068;15.408;2023-07-20T05:49:57;22.90;87.10
1996;DHT22;38556;47.068;15.408;2023-07-20T05:52:24;22.80;86.30
1996;DHT22;38556;47.068;15.408;2023-07-20T05:54:52;22.90;88.50
1996;DHT22;38556;47.068;15.408;2023-07-20T05:57:19;23.00;87.20
1996;DHT22;38556;47.068;15.408;2023-07-20T05:59:46;23.00;88.20
1996;DHT22;38556;47.068;15.408;2023-07-20T06:02:13;23.20;87.40
1996;DHT22;38556;47.068;15.408;2023-07-20T06:04:40;23.20;88.20
1996;DHT22;38556;47.068;15.408;2023-07-20T06:07:09;23.30;87.70
1996;DHT22;38556;47.068;15.408;2023-07-20T06:09:36;23.20;87.90
1996;DHT22;38556;47.068;15.408;2023-07-20T06:12:05;23.10;86.60
1996;DHT22;38556;47.068;15.408;2023-07-20T06:14:32;23.10;85.90
1996;DHT22;38556;47.068;15.408;2023-07-20T06:17:00;23.10;86.20
1996;DHT22;38556;47.068;15.408;2023-07-20T06:19:27;22.90;86.50
1996;DHT22;38556;47.068;15.408;2023-07-20T06:21:54;22.90;85.50
1996;DHT22;38556;47.068;15.408;2023-07-20T06:24:23;23.00;86.40
1996;DHT22;38556;47.068;15.408;2023-07-20T06:26:50;23.10;86.30
1996;DHT22;38556;47.068;15.408;2023-07-20T06:29:17;23.20;85.40
1996;DHT22;38556;47.068;15.408;2023-07-20T06:31:45;23.30;86.30
1996;DHT22;38556;47.068;15.408;2023-07-20T06:34:12;23.40;85.40
1996;DHT22;38556;47.068;15.408;2023-07-20T06:36:40;23.50;83.60
1996;DHT22;38556;47.068;15.408;2023-07-20T06:39:07;23.30;84.40
1996;DHT22;38556;47.068;15.408;2023-07-20T06:41:35;23.40;85.40
1996;DHT22;38556;47.068;15.408;2023-07-20T06:44:03;23.30;84.40
1996;DHT22;38556;47.068;15.408;2023-07-20T06:46:31;23.60;84.60
1996;DHT22;38556;47.068;15.408;2023-07-20T06:48:57;23.70;84.80
1996;DHT22;38556;47.068;15.408;2023-07-20T06:51:25;23.60;84.50
1996;DHT22;38556;47.068;15.408;2023-07-20T06:53:52;23.60;84.60
1996;DHT22;38556;47.068;15.408;2023-07-20T06:56:19;23.60;84.80
1996;DHT22;38556;47.068;15.408;2023-07-20T06:58:47;23.60;84.10
1996;DHT22;38556;47.068;15.408;2023-07-20T07:01:15;23.50;85.20
1996;DHT22;38556;47.068;15.408;2023-07-20T07:03:42;23.60;85.90
1996;DHT22;38556;47.068;15.408;2023-07-20T07:06:11;23.70;84.70
1996;DHT22;38556;47.068;15.408;2023-07-20T07:08:38;26.60;87.00
1996;DHT22;38556;47.068;15.408;2023-07-20T07:11:06;23.70;84.20
1996;DHT22;38556;47.068;15.408;2023-07-20T07:13:33;23.60;84.10
1996;DHT22;38556;47.068;15.408;2023-07-20T07:16:02;23.70;84.40
1996;DHT22;38556;47.068;15.408;2023-07-20T07:18:29;23.90;83.70
1996;DHT22;38556;47.068;15.408;2023-07-20T07:20:56;23.90;84.10
1996;DHT22;38556;47.068;15.408;2023-07-20T07:23:23;23.80;83.70
1996;DHT22;38556;47.068;15.408;2023-07-20T07:25:51;23.80;84.80
1996;DHT22;38556;47.068;15.408;2023-07-20T07:28:18;23.90;84.60
1996;DHT22;38556;47.068;15.408;2023-07-20T07:30:46;23.90;84.50
1996;DHT22;38556;47.068;15.408;2023-07-20T07:33:14;23.80;85.80
1996;DHT22;38556;47.068;15.408;2023-07-20T07:35:42;23.60;85.40
1996;DHT22;38556;47.068;15.408;2023-07-20T07:38:09;23.60;85.00
1996;DHT22;38556;47.068;15.408;2023-07-20T07:40:37;23.60;86.80
1996;DHT22;38556;47.068;15.408;2023-07-20T07:43:04;23.70;87.80
1996;DHT22;38556;47.068;15.408;2023-07-20T07:45:34;23.80;87.50
1996;DHT22;38556;47.068;15.408;2023-07-20T07:48:02;23.70;87.50
1996;DHT22;38556;47.068;15.408;2023-07-20T07:50:31;23.60;88.30
1996;DHT22;38556;47.068;15.408;2023-07-20T07:52:58;23.70;88.20
1996;DHT22;38556;47.068;15.408;2023-07-20T07:55:26;23.90;87.90
1996;DHT22;38556;47.068;15.408;2023-07-20T07:57:53;24.10;86.90
1996;DHT22;38556;47.068;15.408;2023-07-20T08:00:21;24.10;87.80
1996;DHT22;38556;47.068;15.408;2023-07-20T08:02:50;24.10;86.70
1996;DHT22;38556;47.068;15.408;2023-07-20T08:05:17;24.30;87.00
1996;DHT22;38556;47.068;15.408;2023-07-20T08:07:46;24.50;85.90
1996;DHT22;38556;47.068;15.408;2023-07-20T08:10:14;24.50;85.70
1996;DHT22;38556;47.068;15.408;2023-07-20T08:12:41;24.70;86.80
1996;DHT22;38556;47.068;15.408;2023-07-20T08:15:11;25.00;86.90
1996;DHT22;38556;47.068;15.408;2023-07-20T08:17:38;24.80;82.80
1996;DHT22;38556;47.068;15.408;2023-07-20T08:20:06;25.10;83.30
1996;DHT22;38556;47.068;15.408;2023-07-20T08:22:35;25.20;82.80
1996;DHT22;38556;47.068;15.408;2023-07-20T08:25:05;25.30;81.40
1996;DHT22;38556;47.068;15.408;2023-07-20T08:27:32;25.40;80.00
1996;DHT22;38556;47.068;15.408;2023-07-20T08:29:59;25.40;80.30
1996;DHT22;38556;47.068;15.408;2023-07-20T08:32:27;25.60;80.70
1996;DHT22;38556;47.068;15.408;2023-07-20T08:34:54;25.80;80.30
1996;DHT22;38556;47.068;15.408;2023-07-20T08:37:22;25.90;78.20
1996;DHT22;38556;47.068;15.408;2023-07-20T08:39:49;25.90;78.90
1996;DHT22;38556;47.068;15.408;2023-07-20T08:42:18;26.10;78.60
1996;DHT22;38556;47.068;15.408;2023-07-20T08:44:46;26.20;76.80
1996;DHT22;38556;47.068;15.408;2023-07-20T08:47:16;26.50;75.30
1996;DHT22;38556;47.068;15.408;2023-07-20T08:49:44;26.50;75.00
1996;DHT22;38556;47.068;15.408;2023-07-20T08:52:15;26.40;73.90
1996;DHT22;38556;47.068;15.408;2023-07-20T08:54:42;26.50;72.30
1996;DHT22;38556;47.068;15.408;2023-07-20T08:57:13;26.60;73.20
1996;DHT22;38556;47.068;15.408;2023-07-20T08:59:43;26.70;72.40
1996;DHT22;38556;47.068;15.408;2023-07-20T09:02:16;26.70;72.30
1996;DHT22;38556;47.068;15.408;2023-07-20T09:04:44;26.80;73.70
1996;DHT22;38556;47.068;15.408;2023-07-20T09:07:12;26.90;72.80
1996;DHT22;38556;47.068;15.408;2023-07-20T09:09:40;27.10;70.90
1996;DHT22;38556;47.068;15.408;2023-07-20T09:12:13;27.20;70.80
1996;DHT22;38556;47.068;15.408;2023-07-20T09:14:44;27.20;70.30
1996;DHT22;38556;47.068;15.408;2023-07-20T09:17:14;27.20;69.00
1996;DHT22;38556;47.068;15.408;2023-07-20T09:19:46;27.20;71.50
1996;DHT22;38556;47.068;15.408;2023-07-20T09:22:14;27.30;72.20
1996;DHT22;38556;47.068;15.408;2023-07-20T09:24:43;25.90;70.00
1996;DHT22;38556;47.068;15.408;2023-07-20T09:27:10;27.50;70.90
1996;DHT22;38556;47.068;15.408;2023-07-20T09:29:49;27.50;71.10
1996;DHT22;38556;47.068;15.408;2023-07-20T09:32:18;27.50;72.90
1996;DHT22;38556;47.068;15.408;2023-07-20T09:34:47;26.50;76.40
1996;DHT22;38556;47.068;15.408;2023-07-20T09:37:20;27.50;79.20
1996;DHT22;38556;47.068;15.408;2023-07-20T09:39:48;27.50;78.60
1996;DHT22;38556;47.068;15.408;2023-07-20T09:42:15;27.50;78.90
1996;DHT22;38556;47.068;15.408;2023-07-20T09:44:44;27.50;78.80
1996;DHT22;38556;47.068;15.408;2023-07-20T09:47:13;27.70;80.30
1996;DHT22;38556;47.068;15.408;2023-07-20T09:49:48;27.80;80.10
1996;DHT22;38556;47.068;15.408;2023-07-20T09:52:16;27.80;79.20
1996;DHT22;38556;47.068;15.408;2023-07-20T09:54:45;27.80;79.50
1996;DHT22;38556;47.068;15.408;2023-07-20T09:57:13;27.80;78.40
1996;DHT22;38556;47.068;15.408;2023-07-20T09:59:41;27.80;79.10
1996;DHT22;38556;47.068;15.408;2023-07-20T10:02:15;27.80;80.60
1996;DHT22;38556;47.068;15.408;2023-07-20T10:04:46;27.80;79.20
1996;DHT22;38556;47.068;15.408;2023-07-20T10:07:14;27.70;76.40
1996;DHT22;38556;47.068;15.408;2023-07-20T10:09:42;27.80;77.00
1996;DHT22;38556;47.068;15.408;2023-07-20T10:12:11;27.90;78.10
1996;DHT22;38556;47.068;15.408;2023-07-20T10:14:41;28.00;80.00
1996;DHT22;38556;47.068;15.408;2023-07-20T10:17:12;28.00;83.10
1996;DHT22;38556;47.068;15.408;2023-07-20T10:19:43;28.00;84.50
1996;DHT22;38556;47.068;15.408;2023-07-20T10:22:15;27.90;85.60
1996;DHT22;38556;47.068;15.408;2023-07-20T10:24:45;27.10;86.20
1996;DHT22;38556;47.068;15.408;2023-07-20T10:27:13;27.00;86.00
1996;DHT22;38556;47.068;15.408;2023-07-20T10:29:42;27.00;86.70
1996;DHT22;38556;47.068;15.408;2023-07-20T10:32:09;27.00;85.90
1996;DHT22;38556;47.068;15.408;2023-07-20T10:34:37;27.10;86.50
1996;DHT22;38556;47.068;15.408;2023-07-20T10:37:06;27.10;85.00
1996;DHT22;38556;47.068;15.408;2023-07-20T10:39:33;27.00;84.00
1996;DHT22;38556;47.068;15.408;2023-07-20T10:42:01;26.90;84.30
1996;DHT22;38556;47.068;15.408;2023-07-20T10:44:30;26.90;84.80
1996;DHT22;38556;47.068;15.408;2023-07-20T10:49:29;26.80;83.90
1996;DHT22;38556;47.068;15.408;2023-07-20T10:51:57;26.90;84.80
1996;DHT22;38556;47.068;15.408;2023-07-20T10:54:50;26.90;84.80
1996;DHT22;38556;47.068;15.408;2023-07-20T10:57:29;26.80;82.50
1996;DHT22;38556;47.068;15.408;2023-07-20T11:00:11;26.70;83.40
1996;DHT22;38556;47.068;15.408;2023-07-20T11:02:45;26.70;84.70
1996;DHT22;38556;47.068;15.408;2023-07-20T11:05:36;26.90;88.20
1996;DHT22;38556;47.068;15.408;2023-07-20T11:08:05;26.70;84.10
1996;DHT22;38556;47.068;15.408;2023-07-20T11:10:34;26.90;81.00
1996;DHT22;38556;47.068;15.408;2023-07-20T11:13:20;27.00;80.80
1996;DHT22;38556;47.068;15.408;2023-07-20T11:16:02;27.10;78.40
1996;DHT22;38556;47.068;15.408;2023-07-20T11:18:33;27.10;74.90
1996;DHT22;38556;47.068;15.408;2023-07-20T11:21:02;27.10;75.40
1996;DHT22;38556;47.068;15.408;2023-07-20T11:23:29;26.90;75.60
1996;DHT22;38556;47.068;15.408;2023-07-20T11:26:00;26.90;74.80
1996;DHT22;38556;47.068;15.408;2023-07-20T11:28:30;27.00;76.50
1996;DHT22;38556;47.068;15.408;2023-07-20T11:30:57;26.80;77.80
1996;DHT22;38556;47.068;15.408;2023-07-20T11:33:25;26.80;78.00
1996;DHT22;38556;47.068;15.408;2023-07-20T11:35:53;26.80;78.70
1996;DHT22;38556;47.068;15.408;2023-07-20T11:38:20;27.00;77.60
1996;DHT22;38556;47.068;15.408;2023-07-20T11:40:48;26.90;79.30
1996;DHT22;38556;47.068;15.408;2023-07-20T11:43:17;26.70;82.00
1996;DHT22;38556;47.068;15.408;2023-07-20T11:45:47;26.70;80.30
1996;DHT22;38556;47.068;15.408;2023-07-20T11:48:15;26.70;79.30
1996;DHT22;38556;47.068;15.408;2023-07-20T11:50:43;26.70;79.20
1996;DHT22;38556;47.068;15.408;2023-07-20T11:53:10;26.80;79.80
1996;DHT22;38556;47.068;15.408;2023-07-20T11:55:38;26.90;77.40
1996;DHT22;38556;47.068;15.408;2023-07-20T11:58:08;27.00;79.10
1996;DHT22;38556;47.068;15.408;2023-07-20T12:00:38;27.00;77.80
1996;DHT22;38556;47.068;15.408;2023-07-20T12:03:06;27.10;78.30
1996;DHT22;38556;47.068;15.408;2023-07-20T12:05:34;27.40;77.20
1996;DHT22;38556;47.068;15.408;2023-07-20T12:08:01;27.20;75.00
1996;DHT22;38556;47.068;15.408;2023-07-20T12:10:29;27.20;75.70
1996;DHT22;38556;47.068;15.408;2023-07-20T12:13:01;27.20;74.90
1996;DHT22;38556;47.068;15.408;2023-07-20T12:15:30;27.10;75.30
1996;DHT22;38556;47.068;15.408;2023-07-20T12:17:59;27.00;76.30
1996;DHT22;38556;47.068;15.408;2023-07-20T12:20:29;26.20;78.50
1996;DHT22;38556;47.068;15.408;2023-07-20T12:22:59;25.70;78.20
1996;DHT22;38556;47.068;15.408;2023-07-20T12:25:36;25.50;81.70
1996;DHT22;38556;47.068;15.408;2023-07-20T12:28:05;24.60;86.50
1996;DHT22;38556;47.068;15.408;2023-07-20T12:30:32;24.40;88.40
1996;DHT22;38556;47.068;15.408;2023-07-20T12:33:02;24.20;90.30
1996;DHT22;38556;47.068;15.408;2023-07-20T12:35:30;24.00;90.00
1996;DHT22;38556;47.068;15.408;2023-07-20T12:37:57;24.00;90.10
1996;DHT22;38556;47.068;15.408;2023-07-20T12:40:25;23.90;90.20
1996;DHT22;38556;47.068;15.408;2023-07-20T12:42:52;23.90;90.50
1996;DHT22;38556;47.068;15.408;2023-07-20T12:45:20;24.10;90.50
1996;DHT22;38556;47.068;15.408;2023-07-20T12:47:47;24.00;90.50
1996;DHT22;38556;47.068;15.408;2023-07-20T12:50:16;24.10;90.90
1996;DHT22;38556;47.068;15.408;2023-07-20T12:52:43;23.90;91.30
1996;DHT22;38556;47.068;15.408;2023-07-20T12:55:11;23.70;92.50
1996;DHT22;38556;47.068;15.408;2023-07-20T12:57:38;23.70;93.20
1996;DHT22;38556;47.068;15.408;2023-07-20T13:00:08;23.50;94.00
1996;DHT22;38556;47.068;15.408;2023-07-20T13:02:36;23.40;93.50
1996;DHT22;38556;47.068;15.408;2023-07-20T13:05:04;23.10;94.30
1996;DHT22;38556;47.068;15.408;2023-07-20T13:07:33;23.10;95.90
1996;DHT22;38556;47.068;15.408;2023-07-20T13:10:02;23.10;96.50
1996;DHT22;38556;47.068;15.408;2023-07-20T13:12:30;23.00;96.80
1996;DHT22;38556;47.068;15.408;2023-07-20T13:14:59;22.80;98.10
1996;DHT22;38556;47.068;15.408;2023-07-20T13:17:28;23.00;98.80
1996;DHT22;38556;47.068;15.408;2023-07-20T13:19:55;23.10;99.00
1996;DHT22;38556;47.068;15.408;2023-07-20T13:22:23;23.40;98.80
1996;DHT22;38556;47.068;15.408;2023-07-20T13:24:52;23.70;98.80
1996;DHT22;38556;47.068;15.408;2023-07-20T13:27:20;24.00;99.60
1996;DHT22;38556;47.068;15.408;2023-07-20T13:29:47;24.20;99.00
1996;DHT22;38556;47.068;15.408;2023-07-20T13:32:15;24.30;98.80
1996;DHT22;38556;47.068;15.408;2023-07-20T13:34:44;24.40;99.00
1996;DHT22;38556;47.068;15.408;2023-07-20T13:37:12;24.70;97.70
1996;DHT22;38556;47.068;15.408;2023-07-20T13:39:39;24.80;97.90
1996;DHT22;38556;47.068;15.408;2023-07-20T13:42:08;25.00;97.30
1996;DHT22;38556;47.068;15.408;2023-07-20T13:44:37;25.00;97.00
1996;DHT22;38556;47.068;15.408;2023-07-20T13:47:05;25.10;97.30
1996;DHT22;38556;47.068;15.408;2023-07-20T13:49:32;25.20;96.20
1996;DHT22;38556;47.068;15.408;2023-07-20T13:52:00;25.20;96.40
1996;DHT22;38556;47.068;15.408;2023-07-20T13:54:27;25.50;96.60
1996;DHT22;38556;47.068;15.408;2023-07-20T13:56:55;25.40;95.40
1996;DHT22;38556;47.068;15.408;2023-07-20T13:59:23;25.60;95.50
1996;DHT22;38556;47.068;15.408;2023-07-20T14:01:51;26.00;95.00
1996;DHT22;38556;47.068;15.408;2023-07-20T14:04:18;26.30;94.90
1996;DHT22;38556;47.068;15.408;2023-07-20T14:06:45;26.50;94.90
1996;DHT22;38556;47.068;15.408;2023-07-20T14:09:13;26.40;93.40
1996;DHT22;38556;47.068;15.408;2023-07-20T14:11:40;26.20;93.80
1996;DHT22;38556;47.068;15.408;2023-07-20T14:14:07;26.20;93.40
1996;DHT22;38556;47.068;15.408;2023-07-20T14:16:36;26.70;93.10
1996;DHT22;38556;47.068;15.408;2023-07-20T14:19:03;26.80;93.20
1996;DHT22;38556;47.068;15.408;2023-07-20T14:21:32;27.20;93.50
1996;DHT22;38556;47.068;15.408;2023-07-20T14:23:59;27.50;92.20
1996;DHT22;38556;47.068;15.408;2023-07-20T14:26:26;27.70;92.80
1996;DHT22;38556;47.068;15.408;2023-07-20T14:28:53;28.20;92.50
1996;DHT22;38556;47.068;15.408;2023-07-20T14:31:21;28.40;91.90
1996;DHT22;38556;47.068;15.408;2023-07-20T14:33:49;28.60;91.50
1996;DHT22;38556;47.068;15.408;2023-07-20T14:36:16;28.90;90.70
1996;DHT22;38556;47.068;15.408;2023-07-20T14:38:44;28.30;88.30
1996;DHT22;38556;47.068;15.408;2023-07-20T14:41:11;28.60;89.40
1996;DHT22;38556;47.068;15.408;2023-07-20T14:43:38;28.40;89.30
1996;DHT22;38556;47.068;15.408;2023-07-20T14:46:06;28.70;89.70
1996;DHT22;38556;47.068;15.408;2023-07-20T14:48:33;28.70;89.40
1996;DHT22;38556;47.068;15.408;2023-07-20T14:51:02;28.80;90.20
1996;DHT22;38556;47.068;15.408;2023-07-20T14:53:30;29.20;90.50
1996;DHT22;38556;47.068;15.408;2023-07-20T14:56:00;29.40;89.40
1996;DHT22;38556;47.068;15.408;2023-07-20T14:58:29;29.00;89.30
1996;DHT22;38556;47.068;15.408;2023-07-20T15:00:56;29.20;90.20
1996;DHT22;38556;47.068;15.408;2023-07-20T15:03:23;29.30;90.40
1996;DHT22;38556;47.068;15.408;2023-07-20T15:05:50;29.50;89.50
1996;DHT22;38556;47.068;15.408;2023-07-20T15:08:19;28.90;88.70
1996;DHT22;38556;47.068;15.408;2023-07-20T15:10:47;28.90;89.30
1996;DHT22;38556;47.068;15.408;2023-07-20T15:13:15;28.90;88.70
1996;DHT22;38556;47.068;15.408;2023-07-20T15:15:42;29.10;87.90
1996;DHT22;38556;47.068;15.408;2023-07-20T15:18:10;28.90;86.80
1996;DHT22;38556;47.068;15.408;2023-07-20T15:20:37;28.80;88.20
1996;DHT22;38556;47.068;15.408;2023-07-20T15:23:04;28.70;88.90
1996;DHT22;38556;47.068;15.408;2023-07-20T15:25:34;28.50;88.90
1996;DHT22;38556;47.068;15.408;2023-07-20T15:28:01;28.60;88.60
1996;DHT22;38556;47.068;15.408;2023-07-20T15:30:28;28.50;89.30
1996;DHT22;38556;47.068;15.408;2023-07-20T15:32:56;28.40;88.60
1996;DHT22;38556;47.068;15.408;2023-07-20T15:35:23;28.40;89.20
1996;DHT22;38556;47.068;15.408;2023-07-20T15:37:50;28.20;89.30
1996;DHT22;38556;47.068;15.408;2023-07-20T15:40:18;28.20;88.80
1996;DHT22;38556;47.068;15.408;2023-07-20T15:42:47;28.10;88.10